createdAt,value
2022-09-28T00:02:24.427Z,72.23
2022-09-28T00:04:51.298Z,71.82
2022-09-28T00:07:18.063Z,72.15
2022-09-28T00:09:44.893Z,72.14
2022-09-28T00:12:11.864Z,71.75
2022-09-28T00:14:40.625Z,72.00
2022-09-28T00:17:08.360Z,72.19
2022-09-28T00:19:35.182Z,71.78
2022-09-28T00:22:02.070Z,72.53
2022-09-28T00:24:29.628Z,72.34
2022-09-28T00:27:00.734Z,71.41
2022-09-28T00:29:29.059Z,70.94
2022-09-28T00:32:02.538Z,71.05
2022-09-28T00:34:32.088Z,72.64
2022-09-28T00:36:59.600Z,72.37
2022-09-28T00:39:27.205Z,72.99
2022-09-28T00:41:54.957Z,72.71
2022-09-28T00:44:42.277Z,72.76
2022-09-28T00:47:31.309Z,72.67
2022-09-28T00:49:58.223Z,72.44
2022-09-28T00:52:53.323Z,71.30
2022-09-28T00:55:27.050Z,73.86
2022-09-28T00:57:58.383Z,72.54
2022-09-28T01:00:25.904Z,73.54
2022-09-28T01:02:53.148Z,74.07
2022-09-28T01:05:20.997Z,74.43
2022-09-28T01:07:48.696Z,75.23
2022-09-28T01:10:15.932Z,75.38
2022-09-28T01:12:45.949Z,75.51
2022-09-28T01:15:15.436Z,74.86
2022-09-28T01:17:52.314Z,74.84
2022-09-28T01:20:22.678Z,75.61
2022-09-28T01:23:08.307Z,75.78
2022-09-28T01:25:38.425Z,72.71
2022-09-28T01:28:12.133Z,72.54
2022-09-28T01:30:47.217Z,73.06
2022-09-28T01:33:22.557Z,72.03
2022-09-28T01:36:07.501Z,72.83
2022-09-28T01:38:48.284Z,74.34
2022-09-28T01:41:17.951Z,74.45
2022-09-28T01:43:54.866Z,75.10
2022-09-28T01:46:27.448Z,75.18
2022-09-28T01:48:57.881Z,75.25
2022-09-28T01:51:38.100Z,75.11
2022-09-28T01:54:14.123Z,74.86
2022-09-28T01:57:07.078Z,75.74
2022-09-28T01:59:36.872Z,74.60
2022-09-28T02:02:10.145Z,74.11
2022-09-28T02:04:42.914Z,74.55
2022-09-28T02:07:21.216Z,73.74
2022-09-28T02:09:56.133Z,73.37
2022-09-28T02:12:33.060Z,73.21
2022-09-28T02:15:12.691Z,73.54
2022-09-28T02:17:40.065Z,73.82
2022-09-28T02:20:07.850Z,72.54
2022-09-28T02:22:43.967Z,71.93
2022-09-28T02:25:30.294Z,71.86
2022-09-28T02:28:04.786Z,71.62
2022-09-28T02:30:33.530Z,72.40
2022-09-28T02:33:07.538Z,72.92
2022-09-28T02:35:35.510Z,71.91
2022-09-28T02:38:02.887Z,73.68
2022-09-28T02:40:33.214Z,74.17
2022-09-28T02:43:24.024Z,73.69
2022-09-28T02:46:03.631Z,74.69
2022-09-28T02:49:22.378Z,75.54
2022-09-28T02:52:19.478Z,73.82
2022-09-28T02:55:00.196Z,74.78
2022-09-28T02:57:48.517Z,74.79
2022-09-28T03:00:22.362Z,75.73
2022-09-28T03:03:06.120Z,75.25
2022-09-28T03:05:50.017Z,75.69
2022-09-28T03:08:41.073Z,75.05
2022-09-28T03:11:28.609Z,74.44
2022-09-28T03:13:56.293Z,74.49
2022-09-28T03:16:32.198Z,74.47
2022-09-28T03:18:59.578Z,74.23
2022-09-28T03:21:26.474Z,74.54
2022-09-28T03:23:53.322Z,74.66
2022-09-28T03:26:20.246Z,73.64
2022-09-28T03:28:47.290Z,73.71
2022-09-28T03:31:21.064Z,73.02
2022-09-28T03:33:48.136Z,72.74
2022-09-28T03:36:15.319Z,71.77
2022-09-28T03:38:43.388Z,71.22
2022-09-28T03:41:11.104Z,72.50
2022-09-28T03:43:41.250Z,72.87
2022-09-28T03:46:08.411Z,73.17
2022-09-28T03:48:40.808Z,75.16
2022-09-28T03:51:11.162Z,74.59
2022-09-28T03:53:39.709Z,75.53
2022-09-28T03:56:15.379Z,74.44
2022-09-28T03:58:42.998Z,75.43
2022-09-28T04:01:16.999Z,74.66
2022-09-28T04:03:46.783Z,74.86
2022-09-28T04:06:14.773Z,74.90
2022-09-28T04:08:43.166Z,74.67
2022-09-28T04:11:10.415Z,74.33
2022-09-28T04:13:37.459Z,74.65
2022-09-28T04:16:06.676Z,74.47
2022-09-28T04:18:35.293Z,73.48
2022-09-28T04:21:14.641Z,72.67
2022-09-28T04:23:46.234Z,72.53
2022-09-28T04:26:25.113Z,71.56
2022-09-28T04:29:10.732Z,71.84
2022-09-28T04:31:46.929Z,71.38
2022-09-28T04:34:17.547Z,71.98
2022-09-28T04:36:45.418Z,73.64
2022-09-28T04:39:14.819Z,73.88
2022-09-28T04:41:47.321Z,73.97
2022-09-28T04:44:14.481Z,72.55
2022-09-28T04:46:41.300Z,73.30
2022-09-28T04:49:26.771Z,73.00
2022-09-28T04:51:56.493Z,73.37
2022-09-28T04:54:23.321Z,72.95
2022-09-28T04:56:51.263Z,72.88
2022-09-28T04:59:18.213Z,72.49
2022-09-28T05:01:45.360Z,72.34
2022-09-28T05:04:33.278Z,71.89
2022-09-28T05:07:18.278Z,70.06
2022-09-28T05:09:45.180Z,71.60
2022-09-28T05:12:11.999Z,71.83
2022-09-28T05:14:39.023Z,72.95
2022-09-28T05:17:06.034Z,72.98
2022-09-28T05:19:39.705Z,72.43
2022-09-28T05:22:11.441Z,72.32
2022-09-28T05:24:42.822Z,72.28
2022-09-28T05:27:09.884Z,72.60
2022-09-28T05:29:36.769Z,72.59
2022-09-28T05:32:42.155Z,72.11
2022-09-28T05:35:21.026Z,70.46
2022-09-28T05:37:48.709Z,70.36
2022-09-28T05:40:16.277Z,69.91
2022-09-28T05:42:43.358Z,69.75
2022-09-28T05:45:10.839Z,68.38
2022-09-28T05:47:41.947Z,67.57
2022-09-28T05:50:16.064Z,67.60
2022-09-28T05:52:43.888Z,66.53
2022-09-28T05:55:11.432Z,66.52
2022-09-28T05:57:38.904Z,66.79
2022-09-28T06:00:09.357Z,66.40
2022-09-28T06:03:05.384Z,66.68
2022-09-28T06:05:36.351Z,66.42
2022-09-28T06:08:05.404Z,63.61
2022-09-28T06:10:33.500Z,61.34
2022-09-28T06:13:01.595Z,60.78
2022-09-28T06:15:30.909Z,62.31
2022-09-28T06:18:00.742Z,60.66
2022-09-28T06:21:01.382Z,61.82
2022-09-28T06:23:34.666Z,63.40
2022-09-28T06:26:01.522Z,62.61
2022-09-28T06:28:30.161Z,61.18
2022-09-28T06:31:00.567Z,60.75
2022-09-28T06:33:28.191Z,62.20
2022-09-28T06:35:55.117Z,62.10
2022-09-28T06:38:22.031Z,59.89
2022-09-28T06:40:49.644Z,63.15
2022-09-28T06:43:16.602Z,62.23
2022-09-28T06:46:02.755Z,62.52
2022-09-28T06:48:29.740Z,62.37
2022-09-28T06:50:56.892Z,62.49
2022-09-28T06:53:48.659Z,61.88
2022-09-28T06:56:32.693Z,59.87
2022-09-28T06:59:00.133Z,58.98
2022-09-28T07:01:28.821Z,58.61
2022-09-28T07:04:28.447Z,59.23
2022-09-28T07:07:33.217Z,59.44
2022-09-28T07:10:15.688Z,58.69
2022-09-28T07:13:03.603Z,56.05
2022-09-28T07:15:39.220Z,55.88
2022-09-28T07:18:07.426Z,55.79
2022-09-28T07:20:45.672Z,53.78
2022-09-28T07:23:19.762Z,55.84
2022-09-28T07:26:23.987Z,55.78
2022-09-28T07:29:21.412Z,54.29
2022-09-28T07:32:11.088Z,56.00
2022-09-28T07:34:58.728Z,55.34
2022-09-28T07:37:46.347Z,54.82
2022-09-28T07:40:31.721Z,55.95
2022-09-28T07:43:06.677Z,52.83
2022-09-28T07:45:37.659Z,55.57
2022-09-28T07:48:05.239Z,54.57
2022-09-28T07:51:04.531Z,53.13
2022-09-28T07:53:44.550Z,54.81
2022-09-28T07:56:31.058Z,54.46
2022-09-28T07:59:20.948Z,52.49
2022-09-28T08:02:06.471Z,52.55
2022-09-28T08:04:33.410Z,52.90
2022-09-28T08:07:00.463Z,50.89
2022-09-28T08:09:27.324Z,50.49
2022-09-28T08:12:14.167Z,51.25
2022-09-28T08:15:16.572Z,50.06
2022-09-28T08:18:06.675Z,50.50
2022-09-28T08:20:52.595Z,51.75
2022-09-28T08:23:20.442Z,48.47
2022-09-28T08:25:52.634Z,49.09
2022-09-28T08:28:22.702Z,48.70
2022-09-28T08:30:52.418Z,49.55
2022-09-28T08:33:31.565Z,50.14
2022-09-28T08:36:16.842Z,48.46
2022-09-28T08:39:01.465Z,47.79
2022-09-28T08:42:02.337Z,46.92
2022-09-28T08:45:23.184Z,47.91
2022-09-28T08:49:24.160Z,46.74
2022-09-28T08:52:30.265Z,46.80
2022-09-28T08:55:04.979Z,45.64
2022-09-28T08:57:55.613Z,45.35
2022-09-28T09:00:33.656Z,45.63
2022-09-28T09:03:06.716Z,44.15
2022-09-28T09:06:18.730Z,44.55
2022-09-28T09:09:36.602Z,46.43
2022-09-28T09:12:10.002Z,45.24
2022-09-28T09:15:01.372Z,43.21
2022-09-28T09:17:59.212Z,41.73
2022-09-28T09:21:02.874Z,42.10
2022-09-28T09:23:54.240Z,40.97
2022-09-28T09:26:35.283Z,38.23
2022-09-28T09:29:20.865Z,38.31
2022-09-28T09:32:03.104Z,38.59
2022-09-28T09:34:38.060Z,38.29
2022-09-28T09:37:37.616Z,39.77
2022-09-28T09:40:38.791Z,39.63
2022-09-28T09:43:47.792Z,38.91
2022-09-28T09:47:08.201Z,39.23
2022-09-28T09:50:05.447Z,39.67
2022-09-28T09:52:52.067Z,39.70
2022-09-28T09:55:34.485Z,37.68
2022-09-28T09:58:38.580Z,38.52
2022-09-28T10:01:19.501Z,37.95
2022-09-28T10:04:20.625Z,37.40
2022-09-28T10:06:51.656Z,38.26
2022-09-28T10:09:30.508Z,35.56
2022-09-28T10:12:15.795Z,36.81
2022-09-28T10:14:42.624Z,37.25
2022-09-28T10:17:12.112Z,35.97
2022-09-28T10:19:57.308Z,34.06
2022-09-28T10:22:51.860Z,33.44
2022-09-28T10:25:20.067Z,36.11
2022-09-28T10:27:51.485Z,33.80
2022-09-28T10:30:25.425Z,35.16
2022-09-28T10:32:55.558Z,34.56
2022-09-28T10:35:27.167Z,35.00
2022-09-28T10:38:01.776Z,34.16
2022-09-28T10:41:01.783Z,32.68
2022-09-28T10:44:06.446Z,32.95
2022-09-28T10:46:43.377Z,33.22
2022-09-28T10:49:18.879Z,32.98
2022-09-28T10:51:56.230Z,32.73
2022-09-28T10:54:32.173Z,31.60
2022-09-28T10:57:01.054Z,32.25
2022-09-28T10:59:39.967Z,32.20
2022-09-28T11:02:30.389Z,33.11
2022-09-28T11:05:06.738Z,34.24
2022-09-28T11:07:48.049Z,30.69
2022-09-28T11:10:28.384Z,30.62
2022-09-28T11:13:00.180Z,31.09
2022-09-28T11:15:33.339Z,31.03
2022-09-28T11:18:29.011Z,31.55
2022-09-28T11:21:17.320Z,32.03
2022-09-28T11:24:07.566Z,30.02
2022-09-28T11:26:48.079Z,30.80
2022-09-28T11:29:38.071Z,31.30
2022-09-28T11:32:28.202Z,31.33
2022-09-28T11:35:33.331Z,32.73
2022-09-28T11:38:36.506Z,32.07
2022-09-28T11:41:23.362Z,31.97
2022-09-28T11:44:02.525Z,32.43
2022-09-28T11:47:04.908Z,32.98
2022-09-28T11:49:40.144Z,29.83
2022-09-28T11:52:17.877Z,28.62
2022-09-28T11:54:52.638Z,30.10
2022-09-28T11:57:24.071Z,29.97
2022-09-28T12:00:01.862Z,28.18
2022-09-28T12:02:36.929Z,29.69
2022-09-28T12:05:20.003Z,31.01
2022-09-28T12:07:54.611Z,30.27
2022-09-28T12:10:55.542Z,30.65
2022-09-28T12:13:47.770Z,29.60
2022-09-28T12:20:21.148Z,28.80
2022-09-28T12:23:01.230Z,28.25
2022-09-28T12:25:34.378Z,28.32
2022-09-28T12:28:12.997Z,30.26
2022-09-28T12:30:43.893Z,29.45
2022-09-28T12:33:15.575Z,27.84
2022-09-28T12:35:54.522Z,28.52
2022-09-28T12:38:42.551Z,27.87
2022-09-28T12:41:32.655Z,27.73
2022-09-28T12:44:33.217Z,28.36
2022-09-28T12:47:19.206Z,28.84
2022-09-28T12:53:15.814Z,29.38
2022-09-28T12:55:56.410Z,31.32
2022-09-28T12:58:41.253Z,27.60
2022-09-28T13:01:25.796Z,29.69
2022-09-28T13:03:52.611Z,31.80
2022-09-28T13:06:19.347Z,30.02
2022-09-28T13:09:10.293Z,30.10
2022-09-28T13:11:43.982Z,28.40
2022-09-28T13:14:30.610Z,28.16
2022-09-28T13:17:17.675Z,27.14
2022-09-28T13:19:55.517Z,29.24
2022-09-28T13:22:35.265Z,27.24
2022-09-28T13:25:14.667Z,26.51
2022-09-28T13:27:49.900Z,29.68
2022-09-28T13:30:19.540Z,30.34
2022-09-28T13:32:48.504Z,28.51
2022-09-28T13:35:20.604Z,26.10
2022-09-28T13:37:48.878Z,26.08
2022-09-28T13:40:15.783Z,26.45
2022-09-28T13:42:42.658Z,27.63
2022-09-28T13:45:22.021Z,26.93
2022-09-28T13:47:54.504Z,26.27
2022-09-28T13:50:27.675Z,25.45
2022-09-28T13:53:01.292Z,24.17
2022-09-28T13:55:33.817Z,25.58
2022-09-28T13:58:14.706Z,26.13
2022-09-28T14:00:51.575Z,25.13
2022-09-28T14:03:24.383Z,26.99
2022-09-28T14:06:00.831Z,26.43
2022-09-28T14:08:38.595Z,26.82
2022-09-28T14:11:40.330Z,24.89
2022-09-28T14:14:13.975Z,24.64
2022-09-28T14:16:42.447Z,24.34
2022-09-28T14:19:15.859Z,25.59
2022-09-28T14:21:51.736Z,24.64
2022-09-28T14:24:31.935Z,24.73
2022-09-28T14:27:01.605Z,25.22
2022-09-28T14:29:39.230Z,26.03
2022-09-28T14:32:08.716Z,25.48
2022-09-28T14:34:41.040Z,25.15
2022-09-28T14:37:41.624Z,25.21
2022-09-28T14:40:38.954Z,26.10
2022-09-28T14:43:42.841Z,26.34
2022-09-28T14:46:15.559Z,26.15
2022-09-28T14:48:53.783Z,26.18
2022-09-28T14:51:26.520Z,26.38
2022-09-28T14:53:55.508Z,27.22
2022-09-28T14:56:22.549Z,26.62
2022-09-28T14:58:55.054Z,26.13
2022-09-28T15:01:24.795Z,26.14
2022-09-28T15:03:56.320Z,25.61
2022-09-28T15:06:23.475Z,26.00
2022-09-28T15:08:50.425Z,25.75
2022-09-28T15:11:23.676Z,27.24
2022-09-28T15:13:54.037Z,26.87
2022-09-28T15:16:24.579Z,27.03
2022-09-28T15:19:09.705Z,29.06
2022-09-28T15:21:43.935Z,29.66
2022-09-28T15:25:01.442Z,30.45
2022-09-28T15:27:39.304Z,30.51
2022-09-28T15:30:25.619Z,31.54
2022-09-28T15:33:19.316Z,31.79
2022-09-28T15:35:49.898Z,31.82
2022-09-28T15:38:17.645Z,31.40
2022-09-28T15:40:45.930Z,31.75
2022-09-28T15:43:32.994Z,31.00
2022-09-28T15:46:21.173Z,32.09
2022-09-28T15:48:55.591Z,34.63
2022-09-28T15:51:24.702Z,35.88
2022-09-28T15:54:25.504Z,37.76
2022-09-28T15:56:55.385Z,38.60
2022-09-28T15:59:30.906Z,38.64
2022-09-28T16:02:19.472Z,39.61
2022-09-28T16:04:50.421Z,39.40
2022-09-28T16:07:23.338Z,40.76
2022-09-28T16:10:01.851Z,40.21
2022-09-28T16:12:43.369Z,39.97
2022-09-28T16:15:18.284Z,41.28
2022-09-28T16:18:03.158Z,40.59
2022-09-28T16:20:36.510Z,41.86
2022-09-28T16:23:30.810Z,41.08
2022-09-28T16:26:28.761Z,41.03
2022-09-28T16:28:55.685Z,43.60
2022-09-28T16:31:27.436Z,43.03
2022-09-28T16:33:55.888Z,45.52
2022-09-28T16:36:25.922Z,44.28
2022-09-28T16:38:54.403Z,44.69
2022-09-28T16:41:25.993Z,44.48
2022-09-28T16:44:02.443Z,44.96
2022-09-28T16:46:37.499Z,46.21
2022-09-28T16:49:06.871Z,45.61
2022-09-28T16:51:33.823Z,45.44
2022-09-28T16:54:32.173Z,46.99
2022-09-28T16:56:59.311Z,45.91
2022-09-28T16:59:26.216Z,46.25
2022-09-28T17:01:53.131Z,45.59
2022-09-28T17:06:46.884Z,44.98
2022-09-28T17:09:13.740Z,46.08
2022-09-28T17:11:40.604Z,44.40
2022-09-28T17:14:08.887Z,46.73
2022-09-28T17:17:06.159Z,47.35
2022-09-28T17:19:25.135Z,47.51
2022-09-28T17:21:53.106Z,45.74
2022-09-28T17:24:20.734Z,47.29
2022-09-28T17:26:50.229Z,47.04
2022-09-28T17:29:17.826Z,46.52
2022-09-28T17:31:46.181Z,45.88
2022-09-28T17:34:15.273Z,45.34
2022-09-28T17:36:43.344Z,45.14
2022-09-28T17:39:15.735Z,45.86
2022-09-28T17:41:42.654Z,45.89
2022-09-28T17:44:09.738Z,46.00
2022-09-28T17:46:40.827Z,45.96
2022-09-28T17:49:11.682Z,46.86
2022-09-28T17:51:38.761Z,46.94
2022-09-28T17:54:07.639Z,47.20
2022-09-28T17:56:35.380Z,47.28
2022-09-28T17:59:07.644Z,47.94
2022-09-28T18:01:37.899Z,48.69
2022-09-28T18:04:08.129Z,49.42
2022-09-28T18:06:37.276Z,49.35
2022-09-28T18:09:05.441Z,49.89
2022-09-28T18:11:33.635Z,48.42
2022-09-28T18:14:00.900Z,48.00
2022-09-28T18:16:28.884Z,48.64
2022-09-28T18:18:56.037Z,50.88
2022-09-28T18:21:22.958Z,51.22
2022-09-28T18:23:51.053Z,52.37
2022-09-28T18:26:21.062Z,52.33
2022-09-28T18:28:54.295Z,53.04
2022-09-28T18:31:21.503Z,53.59
2022-09-28T18:36:35.743Z,52.97
2022-09-28T18:39:03.063Z,53.43
2022-09-28T18:41:29.944Z,52.97
2022-09-28T18:44:02.823Z,53.30
2022-09-28T18:46:34.771Z,53.61
2022-09-28T18:49:01.961Z,53.91
2022-09-28T18:51:29.260Z,52.77
2022-09-28T18:53:56.198Z,52.56
2022-09-28T18:56:23.031Z,52.53
2022-09-28T18:58:51.710Z,52.78
2022-09-28T19:01:36.556Z,52.52
2022-09-28T19:04:06.160Z,52.55
2022-09-28T19:06:34.406Z,52.93
2022-09-28T19:09:02.015Z,52.63
2022-09-28T19:11:28.965Z,51.89
2022-09-28T19:13:56.433Z,52.55
2022-09-28T19:16:29.995Z,52.75
2022-09-28T19:18:58.395Z,51.84
2022-09-28T19:21:25.693Z,51.88
2022-09-28T19:23:55.143Z,52.17
2022-09-28T19:26:25.336Z,52.32
2022-09-28T19:28:52.722Z,51.92
2022-09-28T19:31:19.922Z,51.80
2022-09-28T19:33:48.242Z,51.28
2022-09-28T19:36:18.520Z,50.85
2022-09-28T19:38:46.314Z,51.43
2022-09-28T19:41:39.334Z,50.98
2022-09-28T19:44:21.282Z,51.63
2022-09-28T19:46:48.140Z,50.09
2022-09-28T19:49:22.683Z,50.07
2022-09-28T19:52:11.658Z,51.11
2022-09-28T19:54:38.175Z,50.66
2022-09-28T19:57:08.053Z,50.07
2022-09-28T19:59:36.776Z,51.11
2022-09-28T20:02:05.837Z,51.12
2022-09-28T20:04:32.764Z,50.77
2022-09-28T20:06:59.753Z,50.20
2022-09-28T20:09:26.647Z,50.59
2022-09-28T20:11:53.473Z,51.72
2022-09-28T20:14:22.440Z,52.15
2022-09-28T20:16:51.586Z,52.08
2022-09-28T20:19:21.500Z,52.80
2022-09-28T20:21:48.848Z,53.16
2022-09-28T20:24:17.334Z,53.53
2022-09-28T20:26:46.038Z,54.15
2022-09-28T20:29:13.465Z,54.92
2022-09-28T20:31:40.482Z,55.73
2022-09-28T20:34:07.485Z,55.62
2022-09-28T20:36:34.562Z,54.99
2022-09-28T20:39:02.276Z,55.62
2022-09-28T20:41:36.768Z,55.21
2022-09-28T20:44:06.374Z,55.65
2022-09-28T20:46:35.605Z,56.21
2022-09-28T20:49:03.650Z,56.26
2022-09-28T20:51:31.168Z,55.90
2022-09-28T20:53:59.169Z,56.10
2022-09-28T20:56:31.675Z,56.62
2022-09-28T20:58:58.521Z,56.84
2022-09-28T21:01:27.896Z,57.23
2022-09-28T21:04:00.195Z,57.12
2022-09-28T21:06:29.874Z,56.30
2022-09-28T21:08:56.855Z,56.80
2022-09-28T21:11:25.737Z,56.67
2022-09-28T21:13:54.797Z,56.92
2022-09-28T21:16:21.757Z,57.21
2022-09-28T21:18:48.592Z,56.60
2022-09-28T21:21:18.172Z,56.90
2022-09-28T21:23:45.532Z,57.18
2022-09-28T21:26:24.534Z,56.63
2022-09-28T21:28:56.063Z,57.09
2022-09-28T21:31:28.718Z,56.71
2022-09-28T21:33:59.642Z,56.97
2022-09-28T21:36:26.517Z,57.43
2022-09-28T21:38:56.184Z,56.78
2022-09-28T21:41:24.302Z,57.08
2022-09-28T21:43:51.247Z,57.14
2022-09-28T21:46:18.284Z,57.13
2022-09-28T21:48:45.352Z,58.07
2022-09-28T21:51:15.906Z,57.83
2022-09-28T21:53:42.905Z,58.37
2022-09-28T21:56:12.146Z,58.34
2022-09-28T21:58:40.198Z,58.89
2022-09-28T22:01:16.928Z,58.34
2022-09-28T22:03:47.449Z,59.43
2022-09-28T22:06:16.295Z,58.99
2022-09-28T22:08:43.365Z,59.02
2022-09-28T22:11:14.058Z,58.69
2022-09-28T22:13:43.765Z,59.03
2022-09-28T22:16:12.035Z,58.51
2022-09-28T22:18:39.709Z,58.97
2022-09-28T22:21:11.464Z,58.82
2022-09-28T22:23:39.029Z,59.06
2022-09-28T22:26:10.873Z,59.02
2022-09-28T22:28:39.774Z,59.25
2022-09-28T22:31:06.680Z,59.15
2022-09-28T22:33:34.183Z,59.23
2022-09-28T22:36:01.117Z,58.73
2022-09-28T22:38:32.162Z,59.59
2022-09-28T22:40:59.062Z,59.64
2022-09-28T22:43:26.973Z,60.13
2022-09-28T22:46:11.909Z,59.41
2022-09-28T22:48:39.115Z,59.98
2022-09-28T22:51:07.178Z,60.38
2022-09-28T22:53:35.268Z,59.92
2022-09-28T22:56:05.684Z,60.65
2022-09-28T22:58:34.142Z,60.12
2022-09-28T23:01:11.382Z,60.73
2022-09-28T23:03:42.299Z,60.35
2022-09-28T23:06:11.337Z,59.71
2022-09-28T23:08:39.055Z,60.55
2022-09-28T23:11:06.578Z,60.49
2022-09-28T23:13:33.428Z,59.45
2022-09-28T23:16:03.280Z,59.53
2022-09-28T23:18:33.017Z,59.60
2022-09-28T23:21:02.138Z,60.88
2022-09-28T23:23:29.635Z,60.00
2022-09-28T23:25:57.259Z,61.08
2022-09-28T23:28:26.198Z,61.00
2022-09-28T23:30:53.914Z,61.09
2022-09-28T23:33:21.683Z,61.26
2022-09-28T23:35:49.509Z,61.07
2022-09-28T23:38:18.364Z,61.26
2022-09-28T23:40:46.817Z,60.56
2022-09-28T23:43:14.657Z,60.79
2022-09-28T23:45:44.711Z,60.81
2022-09-28T23:48:12.854Z,60.12
2022-09-28T23:50:39.632Z,61.19
2022-09-28T23:53:06.671Z,61.45
2022-09-28T23:55:33.534Z,61.34
2022-09-28T23:58:00.424Z,60.99
